createdAt,value
2023-04-01T00:08:37.812Z,999.22
2023-04-01T00:38:37.823Z,999.19
2023-04-01T01:08:37.821Z,999.21
2023-04-01T01:38:37.836Z,999.1
2023-04-01T02:08:37.830Z,998.83
2023-04-01T02:38:37.832Z,998.9
2023-04-01T03:08:37.840Z,999.15
2023-04-01T03:38:37.859Z,999.18
2023-04-01T04:08:37.856Z,999.45
2023-04-01T04:38:37.857Z,999.61
2023-04-01T05:08:37.886Z,999.65
2023-04-01T05:38:37.863Z,999.65
2023-04-01T06:08:37.932Z,999.63
2023-04-01T06:38:37.881Z,999.7
2023-04-01T07:08:37.886Z,999.74
2023-04-01T07:38:37.902Z,999.52
2023-04-01T08:08:37.882Z,999.77
2023-04-01T08:38:37.874Z,999.71
2023-04-01T09:08:37.888Z,999.79
2023-04-01T09:38:37.913Z,999.83
2023-04-01T10:08:37.895Z,999.86
2023-04-01T10:38:37.898Z,999.88
2023-04-01T11:08:37.890Z,999.92
2023-04-01T11:38:37.888Z,999.9
2023-04-01T12:08:37.902Z,999.96
2023-04-01T12:38:37.930Z,999.95
2023-04-01T13:08:37.932Z,999.96
2023-04-01T13:38:37.923Z,1000.23
2023-04-01T14:08:37.945Z,1000.29
2023-04-01T14:38:37.937Z,1000.52
2023-04-01T15:08:37.944Z,1000.64
2023-04-01T15:38:37.957Z,1000.85
2023-04-01T16:08:37.948Z,1001.05
2023-04-01T16:38:37.958Z,1001.18
2023-04-01T17:08:38.022Z,1001.53
2023-04-01T17:38:37.955Z,1001.84
2023-04-01T18:08:37.961Z,1002.17
2023-04-01T18:38:37.961Z,1002.37
2023-04-01T19:08:37.988Z,1002.82
2023-04-01T19:38:37.969Z,1002.99
2023-04-01T20:08:37.973Z,1003.17
2023-04-01T20:38:37.984Z,1003.38
2023-04-01T21:08:37.987Z,1003.67
2023-04-01T21:38:37.989Z,1003.98
2023-04-01T22:08:37.995Z,1004.4
2023-04-01T22:38:38.008Z,1004.67
2023-04-01T23:08:38.003Z,1004.85
2023-04-01T23:38:38.039Z,1005.07
